Time;durP1;ratioP1;P1;durP2;ratioP2;P2;SDS_P1;SDS_P2;PMS_P1;PMS_P2;Temp;Humidity;BMP_temperature;BMP_pressure;BME280_temperature;BME280_humidity;BME280_pressure;Samples;Min_cycle;Max_cycle;Signal;HPM_P1;HPM_P2
2022/06/27 00:00:04;;;;;;;3.70;2.47;;;22.90;90.60;;;;;;5031853;28;20507;-76
2022/06/27 00:02:41;;;;;;;4.18;2.30;;;22.90;90.50;;;;;;5017693;28;20041;-76
2022/06/27 00:05:10;;;;;;;3.33;2.03;;;22.80;90.20;;;;;;5026342;28;20389;-76
2022/06/27 00:07:38;;;;;;;5.70;2.33;;;22.80;89.90;;;;;;5012150;28;20083;-76
2022/06/27 00:10:07;;;;;;;5.88;2.70;;;22.80;89.30;;;;;;5032712;28;20519;-78
2022/06/27 00:12:34;;;;;;;3.65;2.30;;;22.70;87.60;;;;;;5017440;28;20049;-76
2022/06/27 00:15:03;;;;;;;4.75;2.58;;;22.60;88.00;;;;;;5008914;28;20511;-76
2022/06/27 00:17:30;;;;;;;3.53;2.40;;;22.70;87.60;;;;;;5028067;28;20393;-76
2022/06/27 00:19:58;;;;;;;6.32;2.78;;;22.70;87.90;;;;;;5029565;28;20061;-76
2022/06/27 00:22:26;;;;;;;4.30;2.53;;;22.70;87.50;;;;;;5028275;28;20045;-76
2022/06/27 00:24:53;;;;;;;6.38;2.53;;;22.60;87.60;;;;;;5006192;28;20056;-76
2022/06/27 00:27:20;;;;;;;6.40;2.35;;;22.60;87.40;;;;;;5023970;28;20056;-76
2022/06/27 00:29:48;;;;;;;3.42;2.30;;;22.60;87.80;;;;;;5025776;28;20506;-76
2022/06/27 00:32:16;;;;;;;3.78;2.55;;;22.60;88.10;;;;;;5041792;28;20037;-76
2022/06/27 00:34:43;;;;;;;4.93;2.40;;;22.60;87.20;;;;;;5029195;28;20053;-75
2022/06/27 00:37:10;;;;;;;4.30;2.58;;;22.50;86.90;;;;;;5017714;28;20071;-76
2022/06/27 00:39:38;;;;;;;3.75;2.90;;;22.60;87.20;;;;;;5030655;28;20052;-76
2022/06/27 00:42:05;;;;;;;11.23;2.97;;;22.50;87.40;;;;;;5018359;28;20055;-76
2022/06/27 00:44:35;;;;;;;3.53;2.50;;;22.40;87.70;;;;;;5035792;28;20072;-76
2022/06/27 00:47:04;;;;;;;3.17;2.30;;;22.40;87.50;;;;;;5034272;28;20045;-76
2022/06/27 00:49:32;;;;;;;5.45;2.22;;;22.40;88.40;;;;;;5033377;28;20055;-76
2022/06/27 00:52:00;;;;;;;4.47;2.92;;;22.40;88.90;;;;;;5031454;28;20041;-76
2022/06/27 00:54:27;;;;;;;4.00;2.65;;;22.40;88.80;;;;;;5037320;28;20041;-76
2022/06/27 00:56:54;;;;;;;6.72;3.00;;;22.30;87.80;;;;;;5033087;28;20045;-75
2022/06/27 00:59:21;;;;;;;3.13;2.42;;;22.30;88.60;;;;;;5031606;28;20056;-76
2022/06/27 01:01:49;;;;;;;3.55;2.83;;;22.30;88.10;;;;;;5029539;28;20460;-76
2022/06/27 01:04:21;;;;;;;8.00;3.05;;;22.30;88.80;;;;;;5028961;28;20057;-76
2022/06/27 01:06:54;;;;;;;6.55;3.17;;;22.20;88.20;;;;;;5032506;28;20045;-76
2022/06/27 01:09:22;;;;;;;4.10;2.70;;;22.20;88.80;;;;;;5017895;28;20056;-76
2022/06/27 01:11:50;;;;;;;3.90;2.47;;;22.20;89.50;;;;;;5030789;28;20069;-76
2022/06/27 01:14:18;;;;;;;3.33;2.63;;;22.20;89.40;;;;;;5019941;28;20052;-75
2022/06/27 01:16:46;;;;;;;4.97;3.10;;;22.20;89.70;;;;;;5019734;28;20087;-75
2022/06/27 01:19:16;;;;;;;4.97;3.15;;;22.10;90.10;;;;;;5017345;28;20045;-78
2022/06/27 01:21:57;;;;;;;3.67;2.83;;;22.10;89.80;;;;;;5030031;28;20049;-77
2022/06/27 01:24:26;;;;;;;3.10;2.75;;;22.10;89.80;;;;;;5038039;28;20045;-77
2022/06/27 01:26:56;;;;;;;4.72;2.80;;;22.00;90.20;;;;;;5042642;28;20073;-77
2022/06/27 01:29:23;;;;;;;6.40;2.72;;;22.00;89.90;;;;;;5035415;28;20053;-77
2022/06/27 01:31:51;;;;;;;3.60;2.70;;;22.00;89.50;;;;;;5020983;28;20060;-77
2022/06/27 01:34:21;;;;;;;3.38;2.75;;;22.00;89.90;;;;;;5035889;28;20068;-78
2022/06/27 01:36:49;;;;;;;4.10;2.63;;;22.00;89.90;;;;;;5025796;28;20136;-77
2022/06/27 01:39:19;;;;;;;5.30;3.28;;;22.00;89.90;;;;;;5018423;28;20045;-78
2022/06/27 01:41:58;;;;;;;3.95;2.70;;;21.90;89.90;;;;;;5037096;28;20053;-77
2022/06/27 01:44:28;;;;;;;5.50;3.00;;;21.90;90.10;;;;;;5018385;28;20447;-78
2022/06/27 01:47:05;;;;;;;5.72;2.85;;;21.80;90.40;;;;;;5031080;28;20087;-77
2022/06/27 01:49:35;;;;;;;3.85;2.42;;;21.80;90.90;;;;;;5019913;28;20575;-77
2022/06/27 01:52:03;;;;;;;3.42;2.53;;;21.60;91.40;;;;;;5040318;28;20037;-78
2022/06/27 01:54:33;;;;;;;4.25;3.15;;;21.60;91.80;;;;;;5035058;28;20098;-77
2022/06/27 01:57:00;;;;;;;3.20;2.30;;;21.60;92.00;;;;;;5020135;28;20040;-76
2022/06/27 01:59:29;;;;;;;4.45;2.58;;;21.60;92.30;;;;;;5034731;28;20033;-76
2022/06/27 02:01:59;;;;;;;4.03;2.75;;;21.50;92.70;;;;;;5022708;28;20083;-76
2022/06/27 02:04:29;;;;;;;4.50;2.40;;;21.50;93.40;;;;;;5031826;28;20045;-76
2022/06/27 02:06:57;;;;;;;4.28;2.65;;;21.40;93.50;;;;;;5017651;28;20041;-76
2022/06/27 02:09:26;;;;;;;4.13;2.55;;;21.50;93.50;;;;;;5027092;28;20076;-77
2022/06/27 02:11:55;;;;;;;6.07;3.05;;;21.50;93.70;;;;;;5044483;28;20124;-78
2022/06/27 02:14:28;;;;;;;5.88;2.60;;;21.50;93.70;;;;;;5021381;28;20500;-76
2022/06/27 02:16:55;;;;;;;4.25;2.58;;;21.50;94.00;;;;;;5021285;28;20443;-76
2022/06/27 02:19:22;;;;;;;4.15;2.60;;;21.50;93.80;;;;;;5026871;28;20045;-76
2022/06/27 02:21:49;;;;;;;4.45;2.28;;;21.50;93.80;;;;;;5016278;28;20748;-77
2022/06/27 02:24:16;;;;;;;3.72;2.30;;;21.60;93.60;;;;;;5036330;28;20139;-77
2022/06/27 02:26:45;;;;;;;4.03;2.90;;;21.60;93.60;;;;;;5023050;28;20041;-76
2022/06/27 02:29:12;;;;;;;4.88;2.65;;;21.50;93.80;;;;;;5034375;28;20502;-76
2022/06/27 02:31:50;;;;;;;4.25;2.35;;;21.50;94.10;;;;;;5033257;28;20051;-76
2022/06/27 02:34:18;;;;;;;4.28;2.55;;;21.50;93.90;;;;;;5027627;28;20547;-77
2022/06/27 02:36:47;;;;;;;4.05;2.53;;;21.60;94.10;;;;;;5045875;28;20428;-77
2022/06/27 02:39:23;;;;;;;4.05;2.58;;;21.60;93.90;;;;;;5032329;28;20110;-77
2022/06/27 02:41:55;;;;;;;3.22;2.58;;;21.60;93.90;;;;;;5031936;28;20045;-76
2022/06/27 02:44:26;;;;;;;4.20;2.70;;;21.60;94.00;;;;;;5045287;28;20069;-77
2022/06/27 02:46:54;;;;;;;5.15;2.78;;;21.50;94.00;;;;;;5021141;28;20554;-77
2022/06/27 02:49:21;;;;;;;5.15;2.72;;;21.50;94.10;;;;;;5030378;28;20057;-76
2022/06/27 02:52:27;;;;;;;7.25;2.88;;;21.50;94.30;;;;;;5017418;28;20055;-76
2022/06/27 02:55:14;;;;;;;2.70;2.28;;;21.50;94.50;;;;;;5021036;28;20565;-76
2022/06/27 02:57:53;;;;;;;5.22;2.55;;;21.50;94.60;;;;;;5035237;28;20064;-77
2022/06/27 03:00:27;;;;;;;4.07;2.67;;;21.50;94.30;;;;;;5030820;28;20041;-77
2022/06/27 03:02:56;;;;;;;4.82;2.83;;;21.40;94.40;;;;;;5030545;28;20136;-77
2022/06/27 03:05:27;;;;;;;4.10;2.60;;;21.40;94.40;;;;;;5042070;28;20415;-77
2022/06/27 03:07:55;;;;;;;4.93;3.10;;;21.40;94.60;;;;;;5031996;28;20053;-76
2022/06/27 03:10:23;;;;;;;7.10;3.00;;;21.40;94.70;;;;;;5034848;28;20099;-77
2022/06/27 03:12:50;;;;;;;5.13;2.55;;;21.40;94.90;;;;;;5035164;28;20117;-76
2022/06/27 03:15:18;;;;;;;4.60;3.15;;;21.40;94.50;;;;;;5032198;28;20068;-76
2022/06/27 03:17:47;;;;;;;3.83;2.45;;;21.40;94.70;;;;;;5027236;28;20048;-76
2022/06/27 03:20:26;;;;;;;7.80;2.92;;;21.40;94.50;;;;;;5030950;28;20435;-77
2022/06/27 03:23:15;;;;;;;3.20;2.47;;;21.40;94.40;;;;;;5017567;28;20140;-77
2022/06/27 03:25:52;;;;;;;4.47;2.40;;;21.40;94.60;;;;;;5032685;28;20302;-76
2022/06/27 03:28:21;;;;;;;4.32;2.80;;;21.50;94.50;;;;;;5034669;28;20049;-76
2022/06/27 03:30:49;;;;;;;4.05;2.35;;;21.40;94.30;;;;;;5027559;28;20059;-76
2022/06/27 03:33:17;;;;;;;3.90;2.28;;;21.50;94.30;;;;;;5013265;28;20037;-76
2022/06/27 03:35:57;;;;;;;7.68;3.67;;;21.50;94.50;;;;;;5016571;28;20548;-76
2022/06/27 03:38:24;;;;;;;4.15;2.60;;;21.50;94.70;;;;;;5014167;28;20048;-76
2022/06/27 03:40:51;;;;;;;4.30;2.53;;;21.40;94.70;;;;;;5016965;28;20132;-76
2022/06/27 03:43:18;;;;;;;5.88;3.10;;;21.30;95.30;;;;;;5031630;28;20526;-76
2022/06/27 03:45:46;;;;;;;4.50;2.45;;;21.20;95.70;;;;;;5029782;28;20123;-77
2022/06/27 03:49:59;;;;;;;7.93;2.65;;;21.30;95.80;;;;;;5028744;28;20044;-76
2022/06/27 03:51:19;;;;;;;4.50;2.97;;;21.20;96.20;;;;;;5027827;28;20056;-76
2022/06/27 03:53:46;;;;;;;3.10;2.45;;;21.20;96.60;;;;;;5016042;28;20073;-76
2022/06/27 03:56:13;;;;;;;4.57;2.83;;;21.10;97.00;;;;;;5032693;28;20041;-76
2022/06/27 03:58:40;;;;;;;5.00;2.42;;;21.20;96.50;;;;;;5031030;28;20045;-75
2022/06/27 04:01:08;;;;;;;4.82;2.38;;;21.10;96.80;;;;;;5015226;28;20567;-76
2022/06/27 04:03:35;;;;;;;3.35;2.30;;;21.40;96.50;;;;;;5043550;28;20045;-76
2022/06/27 04:06:09;;;;;;;5.45;2.92;;;21.60;95.50;;;;;;5030788;28;20056;-76
2022/06/27 04:08:37;;;;;;;4.75;2.45;;;21.70;95.00;;;;;;5028180;28;20056;-76
2022/06/27 04:11:04;;;;;;;4.93;2.42;;;21.80;94.50;;;;;;5015787;28;20064;-76
2022/06/27 04:13:35;;;;;;;4.28;2.25;;;21.80;94.40;;;;;;5014667;28;20512;-77
2022/06/27 04:16:28;;;;;;;4.05;2.60;;;21.90;94.00;;;;;;5034757;28;20447;-76
2022/06/27 04:19:14;;;;;;;3.88;2.30;;;21.90;94.00;;;;;;5030772;28;20049;-76
2022/06/27 04:22:10;;;;;;;4.75;2.10;;;22.00;93.90;;;;;;5019822;28;20046;-77
2022/06/27 04:24:56;;;;;;;5.35;2.22;;;22.00;94.10;;;;;;5031101;28;20136;-76
2022/06/27 04:27:42;;;;;;;3.65;2.20;;;22.10;94.00;;;;;;5038791;28;20044;-76
2022/06/27 04:30:16;;;;;;;4.72;2.80;;;22.20;94.00;;;;;;5020283;28;20092;-77
2022/06/27 04:32:45;;;;;;;3.40;2.50;;;22.30;93.70;;;;;;5033099;28;20049;-77
2022/06/27 04:35:12;;;;;;;6.57;2.38;;;22.30;93.70;;;;;;5022339;28;20144;-77
2022/06/27 04:37:42;;;;;;;4.18;2.17;;;22.40;93.40;;;;;;5023877;28;20138;-76
2022/06/27 04:40:28;;;;;;;3.22;2.35;;;22.40;93.40;;;;;;5033092;28;20044;-77
2022/06/27 04:42:57;;;;;;;5.97;2.08;;;22.60;93.40;;;;;;5019102;28;20076;-76
2022/06/27 04:45:25;;;;;;;6.30;1.88;;;22.70;93.30;;;;;;5030611;28;20132;-77
2022/06/27 04:48:00;;;;;;;4.05;2.30;;;22.80;93.00;;;;;;5026858;28;20057;-76
2022/06/27 04:50:28;;;;;;;2.67;2.20;;;22.80;92.50;;;;;;5038411;28;20399;-77
2022/06/27 04:52:58;;;;;;;4.13;2.35;;;22.90;92.30;;;;;;5035081;28;20301;-77
2022/06/27 04:55:25;;;;;;;2.67;1.95;;;23.00;92.20;;;;;;5035280;28;20041;-77
2022/06/27 04:57:52;;;;;;;3.92;2.00;;;22.90;91.90;;;;;;5048906;28;20045;-77
2022/06/27 05:00:19;;;;;;;4.20;2.15;;;23.00;91.90;;;;;;5011801;28;20892;-78
2022/06/27 05:02:57;;;;;;;3.83;2.30;;;23.00;91.80;;;;;;4989779;28;20064;-77
2022/06/27 05:05:25;;;;;;;2.75;2.08;;;23.20;91.50;;;;;;4992885;28;22084;-78
2022/06/27 05:07:52;;;;;;;4.63;2.65;;;23.40;92.00;;;;;;4980617;28;20130;-77
2022/06/27 05:10:19;;;;;;;2.60;2.17;;;23.50;91.40;;;;;;4997837;28;20057;-77
2022/06/27 05:12:47;;;;;;;3.03;2.15;;;23.60;90.80;;;;;;4975816;28;20053;-76
2022/06/27 05:15:14;;;;;;;3.00;1.92;;;23.60;90.50;;;;;;5008449;28;22593;-77
2022/06/27 05:17:43;;;;;;;4.25;2.20;;;23.70;90.40;;;;;;5030220;28;20053;-75
2022/06/27 05:20:10;;;;;;;4.13;2.33;;;23.80;90.00;;;;;;5042977;28;20063;-76
2022/06/27 05:22:38;;;;;;;4.18;2.20;;;23.80;90.30;;;;;;5032772;28;20056;-76
2022/06/27 05:25:07;;;;;;;3.53;2.05;;;24.00;89.60;;;;;;5036253;28;20048;-75
2022/06/27 05:27:35;;;;;;;3.45;2.22;;;24.20;88.90;;;;;;5033487;28;20076;-76
2022/06/27 05:30:05;;;;;;;4.68;2.60;;;24.40;88.80;;;;;;5048958;28;20816;-76
2022/06/27 05:32:34;;;;;;;3.80;2.47;;;24.40;88.60;;;;;;5039518;28;20804;-76
2022/06/27 05:35:03;;;;;;;3.85;2.78;;;24.60;87.50;;;;;;5034009;28;20050;-76
2022/06/27 05:37:46;;;;;;;3.40;1.88;;;24.70;87.10;;;;;;5047127;28;20409;-77
2022/06/27 05:40:13;;;;;;;6.30;2.70;;;24.80;86.20;;;;;;5042896;28;20180;-77
2022/06/27 05:42:41;;;;;;;4.75;2.30;;;24.80;84.90;;;;;;5001792;28;20046;-76
2022/06/27 05:45:10;;;;;;;3.78;2.00;;;24.80;85.00;;;;;;5057467;28;20045;-76
2022/06/27 05:48:02;;;;;;;4.05;2.40;;;24.90;85.00;;;;;;5012241;28;20051;-76
2022/06/27 05:50:35;;;;;;;5.78;2.20;;;25.10;83.80;;;;;;4987772;28;20045;-77
2022/06/27 05:53:03;;;;;;;3.47;2.13;;;25.20;83.20;;;;;;4998342;28;20154;-76
2022/06/27 05:55:33;;;;;;;3.83;2.40;;;25.40;82.60;;;;;;4987840;28;20045;-75
2022/06/27 05:58:02;;;;;;;7.05;2.58;;;25.50;81.80;;;;;;5014821;28;20431;-76
2022/06/27 06:00:29;;;;;;;2.78;2.45;;;25.50;81.80;;;;;;4987006;28;20061;-77
2022/06/27 06:02:57;;;;;;;4.28;2.40;;;25.60;81.80;;;;;;5005009;28;20347;-77
2022/06/27 06:05:25;;;;;;;3.45;2.50;;;25.70;81.40;;;;;;5001083;28;20497;-77
2022/06/27 06:07:53;;;;;;;4.75;2.55;;;25.80;81.10;;;;;;4986031;28;20855;-76
2022/06/27 06:10:21;;;;;;;4.15;2.53;;;25.90;81.80;;;;;;4985990;28;20045;-78
2022/06/27 06:12:50;;;;;;;5.50;2.40;;;26.00;81.30;;;;;;5001343;28;20049;-77
2022/06/27 06:15:18;;;;;;;2.92;1.77;;;26.10;79.00;;;;;;4984370;28;22318;-77
2022/06/27 06:17:46;;;;;;;3.78;2.30;;;26.10;78.70;;;;;;4984290;28;20740;-76
2022/06/27 06:20:13;;;;;;;5.00;2.50;;;26.10;77.70;;;;;;4998144;28;20046;-77
2022/06/27 06:22:41;;;;;;;4.05;1.70;;;26.30;77.20;;;;;;4998111;28;20535;-78
2022/06/27 06:25:08;;;;;;;3.88;1.52;;;26.40;76.60;;;;;;5012325;28;20045;-77
2022/06/27 06:27:36;;;;;;;5.88;2.35;;;26.60;77.10;;;;;;4996236;28;20080;-77
2022/06/27 06:30:04;;;;;;;3.58;1.70;;;26.50;75.70;;;;;;4985255;28;20071;-76
2022/06/27 06:32:34;;;;;;;2.30;1.73;;;26.60;75.40;;;;;;4986561;28;20057;-76
2022/06/27 06:35:02;;;;;;;2.63;1.65;;;26.60;75.20;;;;;;4996361;28;22249;-77
2022/06/27 06:37:31;;;;;;;4.07;1.70;;;26.80;74.50;;;;;;5012542;28;21995;-76
2022/06/27 06:39:59;;;;;;;2.70;1.50;;;27.00;74.60;;;;;;4976534;28;20049;-76
2022/06/27 06:42:27;;;;;;;4.15;2.20;;;27.00;73.60;;;;;;4981604;28;20664;-77
2022/06/27 06:45:18;;;;;;;2.80;1.80;;;26.90;73.90;;;;;;4998114;28;20067;-77
2022/06/27 06:47:53;;;;;;;2.00;1.75;;;27.00;73.40;;;;;;4989478;28;20107;-78
2022/06/27 06:50:23;;;;;;;2.70;2.13;;;27.30;73.70;;;;;;4981433;28;20619;-76
2022/06/27 06:52:52;;;;;;;2.65;1.60;;;27.30;72.50;;;;;;4979309;28;20184;-77
2022/06/27 06:55:26;;;;;;;2.55;1.73;;;27.40;72.50;;;;;;4983223;28;20210;-75
2022/06/27 06:57:54;;;;;;;5.68;1.70;;;27.50;72.30;;;;;;4982569;28;20033;-76
2022/06/27 07:00:22;;;;;;;3.13;1.65;;;27.50;71.30;;;;;;5007085;28;20041;-76
2022/06/27 07:02:50;;;;;;;2.75;1.95;;;27.60;71.50;;;;;;5012198;28;20068;-75
2022/06/27 07:05:19;;;;;;;3.08;1.70;;;27.70;71.80;;;;;;4999645;28;22353;-77
2022/06/27 07:07:50;;;;;;;4.15;1.88;;;27.70;71.00;;;;;;5020703;28;20038;-77
2022/06/27 07:10:18;;;;;;;2.55;2.03;;;27.80;71.00;;;;;;5009380;28;20053;-77
2022/06/27 07:12:46;;;;;;;3.92;1.90;;;27.90;70.30;;;;;;5016236;28;20128;-76
2022/06/27 07:15:13;;;;;;;2.30;1.80;;;28.00;70.10;;;;;;5018994;28;20607;-76
2022/06/27 07:17:46;;;;;;;3.20;2.05;;;27.90;69.60;;;;;;5000332;28;20126;-78
2022/06/27 07:20:15;;;;;;;3.67;2.00;;;28.00;69.70;;;;;;4972548;28;20052;-75
2022/06/27 07:22:42;;;;;;;5.20;2.10;;;28.10;70.70;;;;;;4983120;28;20053;-76
2022/06/27 07:25:09;;;;;;;3.00;2.00;;;28.30;69.50;;;;;;4998614;28;20085;-76
2022/06/27 07:27:39;;;;;;;3.08;1.90;;;28.30;69.40;;;;;;4968215;28;20076;-77
2022/06/27 07:30:11;;;;;;;3.33;1.80;;;28.40;68.70;;;;;;4971374;28;20147;-76
2022/06/27 07:32:40;;;;;;;3.47;1.80;;;28.40;68.50;;;;;;4997648;28;20060;-77
2022/06/27 07:35:11;;;;;;;3.13;1.65;;;28.40;67.60;;;;;;4987478;28;20064;-76
2022/06/27 07:37:49;;;;;;;2.00;1.52;;;28.50;68.30;;;;;;4981716;28;20060;-75
2022/06/27 07:40:18;;;;;;;2.80;1.75;;;28.50;68.60;;;;;;4982385;28;20057;-77
2022/06/27 07:42:48;;;;;;;3.58;2.03;;;28.70;68.50;;;;;;4983584;28;20046;-76
2022/06/27 07:45:21;;;;;;;7.43;2.15;;;28.90;68.50;;;;;;4970171;28;20613;-76
2022/06/27 07:47:50;;;;;;;3.53;1.77;;;28.90;67.60;;;;;;4982607;28;20092;-76
2022/06/27 07:53:11;;;;;;;2.50;1.90;;;29.00;66.60;;;;;;4981085;28;20052;-76
2022/06/27 07:55:40;;;;;;;3.75;1.60;;;28.90;66.60;;;;;;4983724;28;20053;-76
2022/06/27 07:58:16;;;;;;;2.20;1.63;;;29.10;66.50;;;;;;4982210;28;22707;-78
2022/06/27 08:00:47;;;;;;;3.47;1.50;;;29.00;66.10;;;;;;4987368;28;20052;-79
2022/06/27 08:06:05;;;;;;;2.13;1.58;;;28.90;67.30;;;;;;4997128;28;20176;-75
2022/06/27 08:08:33;;;;;;;3.35;1.65;;;29.20;66.80;;;;;;4994193;28;20870;-76
2022/06/27 08:11:01;;;;;;;2.88;1.80;;;29.10;65.90;;;;;;4982530;28;20124;-76
2022/06/27 08:13:29;;;;;;;4.53;1.70;;;29.30;66.20;;;;;;4970829;28;20717;-76
2022/06/27 08:15:56;;;;;;;3.58;1.67;;;29.30;65.80;;;;;;4983555;28;20539;-76
2022/06/27 08:18:23;;;;;;;2.03;1.50;;;29.40;65.60;;;;;;4980409;28;20045;-75
2022/06/27 08:20:52;;;;;;;3.90;1.52;;;29.60;65.80;;;;;;4954337;28;20050;-76
2022/06/27 08:23:20;;;;;;;3.92;1.77;;;29.60;65.40;;;;;;4981699;28;20053;-76
2022/06/27 08:25:47;;;;;;;2.78;1.30;;;29.40;65.00;;;;;;4962478;28;20044;-78
2022/06/27 08:28:16;;;;;;;2.80;2.05;;;29.40;66.20;;;;;;4963237;28;20604;-76
2022/06/27 08:30:44;;;;;;;2.28;1.60;;;29.60;65.50;;;;;;4982038;28;20192;-75
2022/06/27 08:33:15;;;;;;;2.08;1.88;;;29.50;65.50;;;;;;4983436;28;22560;-76
2022/06/27 08:35:47;;;;;;;3.97;1.83;;;29.70;66.60;;;;;;4996890;28;20555;-76
2022/06/27 08:38:16;;;;;;;4.47;2.03;;;29.70;64.90;;;;;;4995587;28;20053;-76
2022/06/27 08:40:46;;;;;;;3.97;1.77;;;29.60;65.30;;;;;;4981383;28;20140;-76
2022/06/27 08:43:14;;;;;;;4.32;1.63;;;30.00;65.40;;;;;;4961586;28;20535;-76
2022/06/27 08:45:43;;;;;;;3.83;1.67;;;30.10;64.70;;;;;;4995651;28;20056;-75
2022/06/27 08:48:11;;;;;;;2.33;1.73;;;30.00;64.80;;;;;;4982970;28;20044;-75
2022/06/27 08:50:40;;;;;;;3.10;1.85;;;30.20;65.10;;;;;;4980840;28;20164;-76
2022/06/27 08:53:08;;;;;;;8.10;1.90;;;30.00;64.40;;;;;;4981741;28;20053;-77
2022/06/27 08:55:36;;;;;;;3.80;1.80;;;30.00;64.20;;;;;;4960084;28;20053;-75
2022/06/27 08:58:06;;;;;;;2.55;1.55;;;30.10;64.20;;;;;;4969853;28;20192;-76
2022/06/27 09:00:41;;;;;;;2.55;2.00;;;30.20;63.60;;;;;;4971159;28;20045;-76
2022/06/27 09:03:10;;;;;;;3.90;1.88;;;30.00;65.60;;;;;;4995652;28;22915;-75
2022/06/27 09:05:37;;;;;;;2.28;1.77;;;30.20;63.80;;;;;;4981018;28;20049;-76
2022/06/27 09:08:07;;;;;;;2.55;1.45;;;30.30;63.90;;;;;;4977164;28;20053;-76
2022/06/27 09:10:36;;;;;;;5.70;2.00;;;30.40;63.80;;;;;;4981163;28;20531;-76
2022/06/27 09:13:08;;;;;;;4.68;1.75;;;30.50;63.40;;;;;;4960664;28;20045;-75
2022/06/27 09:15:46;;;;;;;;;;;30.40;62.30;;;;;;4972056;28;20534;-75
2022/06/27 09:18:16;;;;;;;3.55;1.50;;;30.40;61.80;;;;;;4983842;28;19929;-76
2022/06/27 09:21:02;;;;;;;3.53;1.58;;;30.50;62.40;;;;;;4983994;28;20041;-77
2022/06/27 09:23:38;;;;;;;3.05;1.88;;;30.60;62.10;;;;;;4969772;28;20061;-77
2022/06/27 09:26:10;;;;;;;3.72;1.90;;;30.50;61.60;;;;;;4973421;28;20051;-79
2022/06/27 09:28:38;;;;;;;2.38;1.55;;;30.40;61.70;;;;;;4981629;28;20056;-75
2022/06/27 09:31:09;;;;;;;2.20;1.40;;;30.50;62.30;;;;;;4980107;28;21957;-76
2022/06/27 09:33:38;;;;;;;2.53;1.98;;;30.60;61.60;;;;;;4969131;28;22497;-79
2022/06/27 09:36:13;;;;;;;1.70;1.35;;;30.50;60.40;;;;;;4978752;28;20065;-77
2022/06/27 09:38:45;;;;;;;4.53;1.67;;;30.50;60.60;;;;;;4989140;28;20132;-77
2022/06/27 09:41:14;;;;;;;1.70;1.60;;;30.50;61.40;;;;;;4974299;28;20075;-76
2022/06/27 09:43:47;;;;;;;2.53;1.33;;;30.70;62.40;;;;;;4986049;28;20052;-77
2022/06/27 09:46:15;;;;;;;3.50;1.60;;;30.80;61.70;;;;;;4983274;28;20812;-78
2022/06/27 09:48:45;;;;;;;2.08;1.35;;;30.80;60.90;;;;;;4993047;28;20057;-78
2022/06/27 09:51:16;;;;;;;2.15;1.70;;;30.80;61.90;;;;;;4987661;28;22156;-78
2022/06/27 09:53:50;;;;;;;4.72;1.45;;;31.00;61.60;;;;;;5006863;28;20533;-77
2022/06/27 09:56:19;;;;;;;3.72;1.67;;;31.10;60.80;;;;;;4997447;28;20052;-77
2022/06/27 09:58:47;;;;;;;2.22;1.40;;;31.10;60.30;;;;;;4988306;28;20047;-75
2022/06/27 10:01:35;;;;;;;2.10;1.40;;;31.00;59.20;;;;;;4983301;28;20527;-77
2022/06/27 10:04:03;;;;;;;2.15;1.50;;;30.90;59.30;;;;;;4986184;28;20041;-76
2022/06/27 10:06:31;;;;;;;3.58;1.10;;;30.70;58.90;;;;;;4994807;28;20556;-76
2022/06/27 10:09:00;;;;;;;3.67;1.55;;;30.80;59.40;;;;;;4978810;28;20049;-77
2022/06/27 10:11:27;;;;;;;1.80;1.65;;;30.80;58.50;;;;;;4980332;28;20052;-75
2022/06/27 10:14:20;;;;;;;3.70;1.60;;;30.70;59.00;;;;;;4987411;28;20507;-78
2022/06/27 10:16:58;;;;;;;1.77;1.50;;;30.90;59.60;;;;;;4988802;28;20054;-77
2022/06/27 10:19:30;;;;;;;2.47;1.30;;;31.20;59.70;;;;;;4969153;28;20416;-77
2022/06/27 10:21:57;;;;;;;4.55;1.73;;;31.00;58.60;;;;;;4971919;28;20073;-78
2022/06/27 10:24:24;;;;;;;2.72;1.40;;;30.60;58.40;;;;;;4986405;28;20071;-76
2022/06/27 10:26:53;;;;;;;2.33;1.50;;;30.10;59.40;;;;;;4967580;28;20686;-77
2022/06/27 10:29:27;;;;;;;2.53;1.30;;;30.30;60.60;;;;;;4989814;28;20053;-76
2022/06/27 10:31:55;;;;;;;2.28;1.40;;;30.50;60.20;;;;;;4987373;28;20056;-77
2022/06/27 10:34:47;;;;;;;4.53;1.40;;;30.70;59.80;;;;;;4985131;28;20052;-77
2022/06/27 10:37:24;;;;;;;5.68;2.15;;;30.80;59.80;;;;;;4983379;28;20049;-76
2022/06/27 10:40:20;;;;;;;3.25;1.65;;;30.70;60.00;;;;;;4992311;28;20130;-77
2022/06/27 10:42:55;;;;;;;2.30;1.30;;;30.50;60.00;;;;;;5001850;28;20163;-77
2022/06/27 10:45:23;;;;;;;2.65;1.80;;;30.70;60.20;;;;;;4982903;28;20045;-77
2022/06/27 10:47:53;;;;;;;2.60;1.50;;;30.80;58.50;;;;;;4986363;28;20701;-75
2022/06/27 10:50:22;;;;;;;2.72;1.45;;;30.80;58.80;;;;;;4983006;28;20056;-76
2022/06/27 10:52:51;;;;;;;2.05;1.40;;;30.90;58.20;;;;;;4983789;28;20256;-76
2022/06/27 10:55:27;;;;;;;2.40;1.30;;;30.90;58.80;;;;;;4987760;28;20127;-77
2022/06/27 10:57:55;;;;;;;1.77;1.60;;;31.00;58.70;;;;;;4998045;28;20041;-77
2022/06/27 11:00:39;;;;;;;2.75;1.63;;;31.10;57.60;;;;;;4983942;28;20037;-76
2022/06/27 11:03:18;;;;;;;2.72;1.55;;;31.10;56.90;;;;;;4962366;28;20054;-76
2022/06/27 11:05:59;;;;;;;3.70;1.73;;;31.20;57.30;;;;;;4957325;28;20091;-76
2022/06/27 11:08:28;;;;;;;3.10;1.63;;;31.00;57.90;;;;;;4969026;28;20158;-76
2022/06/27 11:10:55;;;;;;;2.80;1.90;;;31.20;58.60;;;;;;4960691;28;20049;-75
2022/06/27 11:13:36;;;;;;;3.55;1.45;;;31.20;57.80;;;;;;4980195;28;20116;-75
2022/06/27 11:16:04;;;;;;;2.63;1.43;;;31.20;57.50;;;;;;4982209;28;20054;-76
2022/06/27 11:18:43;;;;;;;2.22;1.58;;;31.10;57.50;;;;;;4967573;28;20050;-77
2022/06/27 11:21:12;;;;;;;3.45;1.60;;;31.30;57.60;;;;;;4983623;28;20041;-75
2022/06/27 11:23:53;;;;;;;1.98;1.75;;;31.40;57.50;;;;;;4970421;28;20073;-76
2022/06/27 11:26:24;;;;;;;3.80;1.73;;;31.40;57.80;;;;;;4969667;28;20065;-76
2022/06/27 11:34:28;;;;;;;2.35;1.40;;;31.00;57.30;;;;;;4983732;28;22078;-76
2022/06/27 11:36:58;;;;;;;3.83;1.55;;;31.20;57.00;;;;;;4953731;28;20053;-76
2022/06/27 11:39:27;;;;;;;2.17;1.88;;;31.40;57.40;;;;;;4981851;28;20041;-76
2022/06/27 11:42:00;;;;;;;4.43;2.45;;;31.60;57.80;;;;;;4968591;28;20057;-75
2022/06/27 11:44:27;;;;;;;2.75;1.70;;;31.40;56.40;;;;;;4981306;28;20057;-75
2022/06/27 11:47:06;;;;;;;2.65;1.55;;;31.10;56.90;;;;;;4981919;28;20064;-75
2022/06/27 11:49:39;;;;;;;3.13;1.50;;;30.90;57.30;;;;;;4982364;28;20314;-76
2022/06/27 11:52:12;;;;;;;1.60;1.13;;;31.00;57.10;;;;;;4979592;28;20056;-76
2022/06/27 11:54:48;;;;;;;2.17;1.52;;;31.00;57.30;;;;;;4981340;28;20037;-76
2022/06/27 11:57:24;;;;;;;2.55;1.50;;;30.90;56.60;;;;;;4981228;28;20717;-76
2022/06/27 11:59:53;;;;;;;1.85;1.73;;;30.60;56.80;;;;;;4969049;28;20046;-75
2022/06/27 12:02:40;;;;;;;4.30;1.65;;;30.50;58.00;;;;;;4981162;28;20183;-76
2022/06/27 12:05:22;;;;;;;2.45;1.88;;;30.30;56.50;;;;;;4970991;28;20041;-77
2022/06/27 12:07:58;;;;;;;1.60;1.30;;;30.30;57.00;;;;;;4995019;28;20046;-76
2022/06/27 12:10:40;;;;;;;2.55;1.63;;;30.40;57.40;;;;;;4995425;28;20054;-75
2022/06/27 12:13:15;;;;;;;4.60;1.60;;;30.50;57.30;;;;;;4980302;28;20195;-77
2022/06/27 12:15:45;;;;;;;3.80;1.98;;;30.70;57.10;;;;;;4979965;28;20580;-76
2022/06/27 12:18:13;;;;;;;1.88;1.63;;;30.60;57.60;;;;;;4984101;28;20173;-76
2022/06/27 12:20:43;;;;;;;1.50;1.40;;;30.50;56.30;;;;;;4957501;28;20171;-78
2022/06/27 12:23:10;;;;;;;4.68;1.25;;;30.30;56.80;;;;;;4970009;28;20481;-76
2022/06/27 12:25:37;;;;;;;2.40;1.58;;;30.30;58.00;;;;;;4961433;28;20038;-76
2022/06/27 12:28:06;;;;;;;2.67;1.80;;;30.30;57.20;;;;;;4980449;28;20086;-76
2022/06/27 12:30:34;;;;;;;3.42;1.50;;;30.50;57.50;;;;;;4979118;28;20075;-76
2022/06/27 12:33:01;;;;;;;5.32;1.75;;;30.40;57.00;;;;;;4981029;28;20046;-76
2022/06/27 12:35:28;;;;;;;3.38;1.77;;;30.30;56.50;;;;;;4997592;28;20689;-76
2022/06/27 12:38:00;;;;;;;1.90;1.55;;;30.20;57.80;;;;;;4978542;28;21919;-76
2022/06/27 12:40:27;;;;;;;3.35;1.60;;;30.10;56.80;;;;;;4966688;28;20619;-76
2022/06/27 12:43:02;;;;;;;2.88;1.73;;;30.10;57.50;;;;;;4982859;28;20078;-77
2022/06/27 12:45:35;;;;;;;3.65;1.60;;;30.30;56.30;;;;;;4986823;28;20519;-77
2022/06/27 12:48:07;;;;;;;2.72;1.52;;;30.40;57.10;;;;;;4982975;28;20681;-77
2022/06/27 12:50:36;;;;;;;3.53;1.50;;;30.30;57.20;;;;;;4970549;28;20052;-75
2022/06/27 12:53:03;;;;;;;4.15;1.48;;;30.30;57.10;;;;;;4959497;28;20380;-76
2022/06/27 12:55:30;;;;;;;3.28;1.48;;;30.30;57.00;;;;;;4979312;28;20057;-75
2022/06/27 12:57:57;;;;;;;3.55;1.60;;;30.50;56.50;;;;;;4996046;28;20056;-75
2022/06/27 13:00:25;;;;;;;2.42;1.65;;;30.70;55.80;;;;;;4995591;28;20582;-77
2022/06/27 13:02:52;;;;;;;3.58;1.33;;;31.00;55.50;;;;;;4953585;28;20057;-76
2022/06/27 13:05:28;;;;;;;4.20;1.70;;;31.10;55.20;;;;;;4969506;28;20154;-75
2022/06/27 13:07:55;;;;;;;3.67;1.58;;;31.30;56.00;;;;;;4993234;28;22278;-77
2022/06/27 13:10:22;;;;;;;3.63;1.80;;;31.40;55.30;;;;;;4979988;28;20176;-76
2022/06/27 13:12:49;;;;;;;3.58;1.92;;;31.30;54.30;;;;;;4977153;28;20052;-76
2022/06/27 13:15:17;;;;;;;2.60;1.40;;;31.10;55.10;;;;;;4980509;28;20170;-75
2022/06/27 13:17:45;;;;;;;2.92;1.73;;;30.90;55.30;;;;;;4979844;28;20186;-75